Time;durP1;ratioP1;P1;durP2;ratioP2;P2;SDS_P1;SDS_P2;PMS_P1;PMS_P2;Temp;Humidity;BMP_temperature;BMP_pressure;BME280_temperature;BME280_humidity;BME280_pressure;Samples;Min_cycle;Max_cycle;Signal;HPM_P1;HPM_P2
2021/08/19 00:00:21;;;;;;;13.10;4.90;;;28.60;51.20;;;;;;5057298;28;20017;-55
2021/08/19 00:02:48;;;;;;;13.23;5.63;;;28.60;51.40;;;;;;5056559;28;20469;-54
2021/08/19 00:05:14;;;;;;;13.30;5.65;;;28.60;51.10;;;;;;5055972;28;20025;-55
2021/08/19 00:07:41;;;;;;;11.65;5.50;;;28.60;50.80;;;;;;5048563;28;20021;-55
2021/08/19 00:10:10;;;;;;;12.02;5.40;;;28.50;50.10;;;;;;5056769;28;20021;-53
2021/08/19 00:12:36;;;;;;;11.82;5.18;;;28.50;50.10;;;;;;5056398;28;20033;-55
2021/08/19 00:15:03;;;;;;;10.60;4.95;;;28.50;50.10;;;;;;5056776;28;20079;-55
2021/08/19 00:17:30;;;;;;;11.02;5.25;;;28.50;50.10;;;;;;5057323;28;20032;-55
2021/08/19 00:19:56;;;;;;;8.82;5.00;;;28.50;50.20;;;;;;5056002;28;20021;-54
2021/08/19 00:22:23;;;;;;;10.65;5.05;;;28.50;49.80;;;;;;5056557;28;20067;-56
2021/08/19 00:24:49;;;;;;;9.95;5.00;;;28.40;50.00;;;;;;5056902;28;20480;-55
2021/08/19 00:27:16;;;;;;;14.60;5.68;;;28.40;50.00;;;;;;5056517;28;20017;-55
2021/08/19 00:29:43;;;;;;;11.23;5.40;;;28.40;50.00;;;;;;5056809;28;20021;-55
2021/08/19 00:32:09;;;;;;;12.52;5.10;;;28.40;50.10;;;;;;5057384;28;20048;-55
2021/08/19 00:34:36;;;;;;;12.95;5.38;;;28.40;50.00;;;;;;5057529;28;20021;-55
2021/08/19 00:37:02;;;;;;;9.05;4.75;;;28.40;49.90;;;;;;5036642;28;20148;-56
2021/08/19 00:39:30;;;;;;;10.55;4.82;;;28.40;49.80;;;;;;5036418;28;20017;-56
2021/08/19 00:41:58;;;;;;;9.65;5.13;;;28.40;49.60;;;;;;5036311;28;20112;-57
2021/08/19 00:44:25;;;;;;;11.60;4.75;;;28.40;49.00;;;;;;5036618;28;20024;-56
2021/08/19 00:46:52;;;;;;;9.57;4.82;;;28.40;49.40;;;;;;5036892;28;20107;-55
2021/08/19 00:49:18;;;;;;;7.43;4.43;;;28.30;48.30;;;;;;5036586;28;20486;-56
2021/08/19 00:51:53;;;;;;;13.02;5.32;;;28.30;48.70;;;;;;5054878;28;20025;-55
2021/08/19 00:54:24;;;;;;;12.75;5.85;;;28.30;48.20;;;;;;5055964;28;20056;-56
2021/08/19 00:56:54;;;;;;;11.52;5.38;;;28.30;48.60;;;;;;5055397;28;20029;-56
2021/08/19 00:59:23;;;;;;;8.15;5.25;;;28.30;48.60;;;;;;5054387;28;20373;-56
2021/08/19 01:01:57;;;;;;;8.68;4.80;;;28.30;49.10;;;;;;5056185;28;20027;-56
2021/08/19 01:04:23;;;;;;;10.13;5.18;;;28.40;49.20;;;;;;5055372;28;20543;-56
2021/08/19 01:06:50;;;;;;;14.85;6.20;;;28.40;49.30;;;;;;5056089;28;20023;-56
2021/08/19 01:09:17;;;;;;;9.38;5.43;;;28.30;49.30;;;;;;5056128;28;20017;-56
2021/08/19 01:11:45;;;;;;;8.93;4.95;;;28.40;49.80;;;;;;5056328;28;20021;-56
2021/08/19 01:14:15;;;;;;;7.80;5.10;;;28.40;50.20;;;;;;5056286;28;20525;-56
2021/08/19 01:16:45;;;;;;;9.13;5.63;;;28.40;50.40;;;;;;5055649;28;20139;-56
2021/08/19 01:19:20;;;;;;;10.73;5.50;;;28.40;50.60;;;;;;5036182;28;20026;-56
2021/08/19 01:21:52;;;;;;;11.85;5.45;;;28.40;50.90;;;;;;5035925;28;20450;-56
2021/08/19 01:24:18;;;;;;;;;;;28.40;51.10;;;;;;5036964;28;20025;-56
2021/08/19 01:26:47;;;;;;;11.68;5.47;;;28.40;51.50;;;;;;5035856;28;19911;-56
2021/08/19 01:29:13;;;;;;;8.18;4.75;;;28.40;50.60;;;;;;5036977;28;20418;-56
2021/08/19 01:31:40;;;;;;;8.13;5.50;;;28.40;51.20;;;;;;5056698;28;20029;-53
2021/08/19 01:34:06;;;;;;;9.07;5.80;;;28.40;51.50;;;;;;5055186;28;20056;-53
2021/08/19 01:36:33;;;;;;;8.60;5.10;;;28.40;51.50;;;;;;5055512;28;20373;-56
2021/08/19 01:38:59;;;;;;;10.43;5.25;;;28.40;51.80;;;;;;5055216;28;20020;-56
2021/08/19 01:41:26;;;;;;;10.60;4.90;;;28.40;52.00;;;;;;5057086;28;20051;-55
2021/08/19 01:43:53;;;;;;;8.88;5.10;;;28.40;52.20;;;;;;5068086;28;20024;-52
2021/08/19 01:46:21;;;;;;;10.32;5.10;;;28.40;52.20;;;;;;5075384;28;20028;-55
2021/08/19 01:48:49;;;;;;;8.02;5.40;;;28.40;52.20;;;;;;5055375;28;20017;-56
2021/08/19 01:51:20;;;;;;;9.73;4.97;;;28.40;52.40;;;;;;5055468;28;20028;-53
2021/08/19 01:53:53;;;;;;;7.88;5.10;;;28.40;52.30;;;;;;5058492;28;20024;-55
2021/08/19 01:56:23;;;;;;;8.88;4.82;;;28.40;52.50;;;;;;5075111;28;20029;-55
2021/08/19 01:58:54;;;;;;;10.40;5.13;;;28.30;52.40;;;;;;5075730;28;20020;-55
2021/08/19 02:01:21;;;;;;;;;;;28.30;52.50;;;;;;5067582;28;20107;-55
2021/08/19 02:03:49;;;;;;;10.35;5.47;;;28.30;52.80;;;;;;5051755;28;20006;-54
2021/08/19 02:06:16;;;;;;;8.40;5.25;;;28.30;52.40;;;;;;5051304;28;20170;-55
2021/08/19 02:08:43;;;;;;;9.30;5.13;;;28.30;52.40;;;;;;5056021;28;20025;-54
2021/08/19 02:11:09;;;;;;;9.20;5.38;;;28.30;52.50;;;;;;5047093;28;20112;-54
2021/08/19 02:13:37;;;;;;;8.25;5.43;;;28.20;52.50;;;;;;5054887;28;20017;-55
2021/08/19 02:16:04;;;;;;;8.57;5.40;;;28.20;52.60;;;;;;5053112;28;20041;-54
2021/08/19 02:18:31;;;;;;;9.38;4.90;;;28.20;52.90;;;;;;5054107;28;20067;-56
2021/08/19 02:20:58;;;;;;;8.60;5.40;;;28.20;53.00;;;;;;5053549;28;20028;-55
2021/08/19 02:23:24;;;;;;;12.48;5.63;;;28.20;53.10;;;;;;5052923;28;20056;-55
2021/08/19 02:25:51;;;;;;;9.00;4.95;;;28.10;53.20;;;;;;5053277;28;20036;-55
2021/08/19 02:28:17;;;;;;;11.15;5.47;;;28.10;52.40;;;;;;5052875;28;20524;-55
2021/08/19 02:30:44;;;;;;;10.30;5.50;;;28.10;51.80;;;;;;5053774;28;20070;-55
2021/08/19 02:33:10;;;;;;;11.93;5.32;;;28.10;52.40;;;;;;5053468;28;20051;-55
2021/08/19 02:35:37;;;;;;;12.95;7.65;;;28.10;53.10;;;;;;5054470;28;20052;-55
2021/08/19 02:38:07;;;;;;;13.52;6.80;;;28.00;53.60;;;;;;5053916;28;20055;-54
2021/08/19 02:40:36;;;;;;;12.20;7.03;;;28.00;53.40;;;;;;5053319;28;20021;-54
2021/08/19 02:43:04;;;;;;;12.65;6.40;;;28.00;53.70;;;;;;5053748;28;20017;-54
2021/08/19 02:45:30;;;;;;;13.18;6.22;;;28.00;53.60;;;;;;5053681;28;20025;-56
2021/08/19 02:47:57;;;;;;;10.68;5.97;;;28.00;53.70;;;;;;5053984;28;20025;-56
2021/08/19 02:50:24;;;;;;;12.75;6.88;;;28.00;54.00;;;;;;5063606;28;20040;-54
2021/08/19 02:52:50;;;;;;;10.82;6.25;;;28.00;54.30;;;;;;5049242;28;20111;-57
2021/08/19 02:55:17;;;;;;;14.88;6.15;;;27.90;54.10;;;;;;5069186;28;20487;-57
2021/08/19 02:57:43;;;;;;;12.98;5.72;;;27.90;54.00;;;;;;5058563;28;20064;-56
2021/08/19 03:00:10;;;;;;;13.65;6.20;;;27.90;54.10;;;;;;5055403;28;20133;-57
2021/08/19 03:02:37;;;;;;;10.30;5.43;;;27.90;54.20;;;;;;5049940;28;20028;-58
2021/08/19 03:05:05;;;;;;;13.45;5.72;;;27.90;54.30;;;;;;5053850;28;20020;-54
2021/08/19 03:07:32;;;;;;;9.07;5.85;;;27.80;54.70;;;;;;5052128;28;20029;-53
2021/08/19 03:09:58;;;;;;;9.27;5.47;;;27.80;54.50;;;;;;5051943;28;20023;-54
2021/08/19 03:12:25;;;;;;;14.00;6.18;;;27.80;54.50;;;;;;5052833;28;20483;-54
2021/08/19 03:14:52;;;;;;;10.73;5.95;;;27.80;54.40;;;;;;5052341;28;20045;-54
2021/08/19 03:17:19;;;;;;;10.52;5.80;;;27.70;54.20;;;;;;5053014;28;20488;-54
2021/08/19 03:19:46;;;;;;;9.85;5.85;;;27.70;54.40;;;;;;5052726;28;20033;-55
2021/08/19 03:22:14;;;;;;;10.30;5.60;;;27.70;54.30;;;;;;5052650;28;20036;-54
2021/08/19 03:24:41;;;;;;;11.60;5.55;;;27.70;54.20;;;;;;5053556;28;20025;-55
2021/08/19 03:27:10;;;;;;;12.98;5.82;;;27.70;54.80;;;;;;5053555;28;20476;-53
2021/08/19 03:29:37;;;;;;;12.15;6.00;;;27.70;54.80;;;;;;5053753;28;20077;-54
2021/08/19 03:32:04;;;;;;;12.32;5.28;;;27.60;54.60;;;;;;5053035;28;20025;-54
2021/08/19 03:34:30;;;;;;;12.82;6.00;;;27.60;54.60;;;;;;5053662;28;20080;-54
2021/08/19 03:36:57;;;;;;;13.50;5.50;;;27.60;54.20;;;;;;5053640;28;20068;-53
2021/08/19 03:39:23;;;;;;;12.48;5.30;;;27.60;54.50;;;;;;5053526;28;20049;-54
2021/08/19 03:41:50;;;;;;;9.65;5.65;;;27.50;54.70;;;;;;5058495;28;20115;-53
2021/08/19 03:44:17;;;;;;;16.05;5.90;;;27.50;54.60;;;;;;5053352;28;20111;-54
2021/08/19 03:46:44;;;;;;;10.60;6.25;;;27.50;54.50;;;;;;5055142;28;20074;-53
2021/08/19 03:49:11;;;;;;;11.00;6.30;;;27.50;54.70;;;;;;5058445;28;20408;-54
2021/08/19 03:51:37;;;;;;;9.27;5.45;;;27.40;54.50;;;;;;5063267;28;20016;-55
2021/08/19 03:54:04;;;;;;;12.60;5.53;;;27.40;54.40;;;;;;5058144;28;20018;-54
2021/08/19 03:56:32;;;;;;;10.98;6.28;;;27.40;54.40;;;;;;5053098;28;20040;-53
2021/08/19 03:58:59;;;;;;;9.50;5.10;;;27.40;54.50;;;;;;5056775;28;20024;-55
2021/08/19 04:01:25;;;;;;;10.75;5.65;;;27.30;54.60;;;;;;5068605;28;20027;-55
2021/08/19 04:03:52;;;;;;;11.77;5.60;;;27.30;54.50;;;;;;5060167;28;20021;-54
2021/08/19 04:06:19;;;;;;;9.48;5.35;;;27.30;54.50;;;;;;5054492;28;20029;-53
2021/08/19 04:08:46;;;;;;;9.65;6.47;;;27.20;54.50;;;;;;5069500;28;20036;-54
2021/08/19 04:11:12;;;;;;;11.82;5.85;;;27.20;54.60;;;;;;5055385;28;20115;-54
2021/08/19 04:13:39;;;;;;;10.88;5.70;;;27.20;54.40;;;;;;5062106;28;20024;-54
2021/08/19 04:16:07;;;;;;;9.75;6.10;;;27.20;54.50;;;;;;5054995;28;20045;-53
2021/08/19 04:18:34;;;;;;;10.32;6.60;;;27.20;54.50;;;;;;5067941;28;20036;-53
2021/08/19 04:21:02;;;;;;;10.15;6.03;;;27.10;54.30;;;;;;5057769;28;20020;-53
2021/08/19 04:23:28;;;;;;;9.80;5.80;;;27.10;54.60;;;;;;5064306;28;20040;-54
2021/08/19 04:25:55;;;;;;;10.82;5.88;;;27.10;54.50;;;;;;5056877;28;20515;-54
2021/08/19 04:28:22;;;;;;;9.02;5.85;;;27.10;54.60;;;;;;5069201;28;20021;-52
2021/08/19 04:30:48;;;;;;;11.07;5.80;;;27.10;54.70;;;;;;5056280;28;20017;-53
2021/08/19 04:33:15;;;;;;;10.45;5.95;;;27.00;54.40;;;;;;5065158;28;20112;-53
2021/08/19 04:35:42;;;;;;;10.57;6.55;;;27.00;54.50;;;;;;5056432;28;20063;-54
2021/08/19 04:38:09;;;;;;;9.73;6.20;;;27.00;54.40;;;;;;5066519;28;20115;-54
2021/08/19 04:40:35;;;;;;;8.85;5.80;;;26.90;54.30;;;;;;5071223;28;20021;-53
2021/08/19 04:43:02;;;;;;;10.63;6.28;;;26.90;54.50;;;;;;5061589;28;20364;-53
2021/08/19 04:45:29;;;;;;;11.30;6.50;;;26.90;54.60;;;;;;5067058;28;20017;-53
2021/08/19 04:47:55;;;;;;;8.93;6.07;;;26.90;54.60;;;;;;5068679;28;20115;-54
2021/08/19 04:50:22;;;;;;;11.65;6.15;;;26.90;54.60;;;;;;5059945;28;20029;-52
2021/08/19 04:52:48;;;;;;;10.18;6.30;;;26.90;54.70;;;;;;5043140;28;20044;-53
2021/08/19 04:55:15;;;;;;;11.10;5.93;;;26.80;54.70;;;;;;5068297;28;20018;-53
2021/08/19 04:57:41;;;;;;;8.93;5.93;;;26.80;54.70;;;;;;5066469;28;20032;-55
2021/08/19 05:00:09;;;;;;;9.55;6.20;;;26.80;54.70;;;;;;5069163;28;20069;-56
2021/08/19 05:02:35;;;;;;;10.85;6.50;;;26.70;54.60;;;;;;5072218;28;20048;-56
2021/08/19 05:05:02;;;;;;;11.40;6.63;;;26.70;54.60;;;;;;5056044;28;20062;-55
2021/08/19 05:07:30;;;;;;;9.75;6.78;;;26.70;54.50;;;;;;5065093;28;20024;-54
2021/08/19 05:09:57;;;;;;;11.27;6.68;;;26.70;54.40;;;;;;5063021;28;20028;-53
2021/08/19 05:12:24;;;;;;;10.27;6.82;;;26.70;54.20;;;;;;5072146;28;20368;-53
2021/08/19 05:14:50;;;;;;;10.55;6.43;;;26.70;54.00;;;;;;5058842;28;20031;-54
2021/08/19 05:17:17;;;;;;;9.07;6.40;;;26.60;54.00;;;;;;5068311;28;20029;-53
2021/08/19 05:19:43;;;;;;;10.43;6.70;;;26.60;54.00;;;;;;5066471;28;20016;-54
2021/08/19 05:22:10;;;;;;;11.77;6.65;;;26.60;53.90;;;;;;5061218;28;20028;-54
2021/08/19 05:24:37;;;;;;;9.93;6.82;;;26.50;53.90;;;;;;5060049;28;20020;-55
2021/08/19 05:27:03;;;;;;;12.02;7.28;;;26.50;54.00;;;;;;5052752;28;20044;-53
2021/08/19 05:29:30;;;;;;;14.27;6.90;;;26.50;53.90;;;;;;5039694;28;20029;-53
2021/08/19 05:31:56;;;;;;;13.95;7.60;;;26.50;54.00;;;;;;5050062;28;20029;-54
2021/08/19 05:34:23;;;;;;;12.85;7.63;;;26.50;54.00;;;;;;5052124;28;20469;-54
2021/08/19 05:36:50;;;;;;;12.13;6.80;;;26.40;53.80;;;;;;5053612;28;20036;-53
2021/08/19 05:39:16;;;;;;;13.52;6.85;;;26.40;54.10;;;;;;5054991;28;20023;-53
2021/08/19 05:41:43;;;;;;;12.38;6.93;;;26.40;54.40;;;;;;5055997;28;20024;-52
2021/08/19 05:44:09;;;;;;;10.80;7.05;;;26.30;54.40;;;;;;5054526;28;20092;-53
2021/08/19 05:46:39;;;;;;;11.93;7.43;;;26.30;54.20;;;;;;5054879;28;20033;-52
2021/08/19 05:49:06;;;;;;;11.25;6.80;;;26.30;53.80;;;;;;5056216;28;20063;-53
2021/08/19 05:51:32;;;;;;;10.90;7.85;;;26.30;54.60;;;;;;5054963;28;20036;-53
2021/08/19 05:53:59;;;;;;;13.18;7.38;;;26.20;53.70;;;;;;5055050;28;20079;-53
2021/08/19 05:56:25;;;;;;;12.05;7.22;;;26.20;53.70;;;;;;5054744;28;20377;-53
2021/08/19 05:58:52;;;;;;;11.15;6.95;;;26.10;53.70;;;;;;5054962;28;20020;-52
2021/08/19 06:01:18;;;;;;;10.68;6.95;;;26.10;53.70;;;;;;5054614;28;20067;-52
2021/08/19 06:03:46;;;;;;;10.23;7.35;;;26.10;54.00;;;;;;5054822;28;20626;-52
2021/08/19 06:06:15;;;;;;;10.32;6.90;;;26.10;53.90;;;;;;5055072;28;20032;-52
2021/08/19 06:08:42;;;;;;;11.02;7.47;;;26.10;53.90;;;;;;5054981;28;20017;-52
2021/08/19 06:11:08;;;;;;;11.65;7.68;;;26.00;53.80;;;;;;5054706;28;20090;-54
2021/08/19 06:13:35;;;;;;;9.48;7.25;;;26.00;53.60;;;;;;5054602;28;20415;-53
2021/08/19 06:16:01;;;;;;;13.32;7.60;;;25.90;53.60;;;;;;5054059;28;20049;-53
2021/08/19 06:18:28;;;;;;;8.43;7.43;;;25.90;53.70;;;;;;5054813;28;20056;-53
2021/08/19 06:20:54;;;;;;;12.10;7.70;;;25.90;53.90;;;;;;5055046;28;20017;-53
2021/08/19 06:23:21;;;;;;;10.50;7.30;;;25.80;53.90;;;;;;5054603;28;20017;-52
2021/08/19 06:25:48;;;;;;;11.77;7.60;;;25.80;53.80;;;;;;5054555;28;20467;-54
2021/08/19 06:28:14;;;;;;;9.50;7.05;;;25.80;53.70;;;;;;5054614;28;20049;-53
2021/08/19 06:30:41;;;;;;;13.98;8.30;;;25.80;53.50;;;;;;5054234;28;20027;-52
2021/08/19 06:33:09;;;;;;;11.13;7.53;;;25.70;53.50;;;;;;5054152;28;20021;-52
2021/08/19 06:35:36;;;;;;;10.43;7.10;;;25.70;53.80;;;;;;5054394;28;20025;-52
2021/08/19 06:38:02;;;;;;;10.13;7.55;;;25.70;53.80;;;;;;5054702;28;20104;-52
2021/08/19 06:40:29;;;;;;;9.88;7.40;;;25.70;53.60;;;;;;5054079;28;20449;-53
2021/08/19 06:42:56;;;;;;;10.10;7.28;;;25.60;53.80;;;;;;5053983;28;20028;-53
2021/08/19 06:45:22;;;;;;;9.82;7.60;;;25.60;53.90;;;;;;5053753;28;20025;-53
2021/08/19 06:47:49;;;;;;;10.45;7.20;;;25.60;53.90;;;;;;5054005;28;20376;-53
2021/08/19 06:50:16;;;;;;;10.45;7.40;;;25.50;53.70;;;;;;5053693;28;20445;-53
2021/08/19 06:52:45;;;;;;;10.15;7.03;;;25.50;54.00;;;;;;5053972;28;20545;-53
2021/08/19 06:55:13;;;;;;;10.45;7.47;;;25.50;54.00;;;;;;5054189;28;20020;-53
2021/08/19 06:57:40;;;;;;;11.30;7.45;;;25.40;54.00;;;;;;5053755;28;20033;-52
2021/08/19 07:00:08;;;;;;;10.07;7.20;;;25.40;54.00;;;;;;5054103;28;20020;-53
2021/08/19 07:02:37;;;;;;;9.00;7.53;;;25.40;54.10;;;;;;5053342;28;20025;-52
2021/08/19 07:05:05;;;;;;;10.65;7.38;;;25.40;54.00;;;;;;5053273;28;20025;-53
2021/08/19 07:07:31;;;;;;;8.55;6.80;;;25.30;54.00;;;;;;5053435;28;20021;-53
2021/08/19 07:09:59;;;;;;;10.18;7.18;;;25.30;54.20;;;;;;5053890;28;20021;-53
2021/08/19 07:12:26;;;;;;;10.40;7.18;;;25.20;54.90;;;;;;5053569;28;20060;-53
2021/08/19 07:14:53;;;;;;;11.13;7.05;;;25.20;54.20;;;;;;5053324;28;20025;-53
2021/08/19 07:17:19;;;;;;;10.15;7.10;;;25.20;54.50;;;;;;5053296;28;20376;-53
2021/08/19 07:19:46;;;;;;;8.60;7.20;;;25.20;54.50;;;;;;5053762;28;20083;-53
2021/08/19 07:22:12;;;;;;;12.00;7.68;;;25.10;54.30;;;;;;5053458;28;20055;-54
2021/08/19 07:24:39;;;;;;;10.07;7.15;;;25.10;54.10;;;;;;5053416;28;20021;-53
2021/08/19 07:27:05;;;;;;;11.80;7.38;;;25.10;54.30;;;;;;5053252;28;20031;-54
2021/08/19 07:29:32;;;;;;;11.05;7.53;;;25.10;54.10;;;;;;5053400;28;20017;-53
2021/08/19 07:31:59;;;;;;;8.90;7.20;;;25.00;54.30;;;;;;5053817;28;20067;-53
2021/08/19 07:34:25;;;;;;;10.40;6.90;;;25.00;54.30;;;;;;5052415;28;20057;-54
2021/08/19 07:36:52;;;;;;;8.73;7.30;;;25.00;55.10;;;;;;5053215;28;20029;-53
2021/08/19 07:39:18;;;;;;;9.73;7.40;;;24.90;54.40;;;;;;5053350;28;20078;-53
2021/08/19 07:41:45;;;;;;;9.68;7.05;;;24.90;54.20;;;;;;5053474;28;20032;-53
2021/08/19 07:44:11;;;;;;;9.95;7.30;;;24.90;54.30;;;;;;5053522;28;20357;-53
2021/08/19 07:46:38;;;;;;;10.70;7.85;;;24.90;54.40;;;;;;5053119;28;20457;-53
2021/08/19 07:49:04;;;;;;;7.88;6.90;;;24.80;54.30;;;;;;5053314;28;20473;-54
2021/08/19 07:51:31;;;;;;;8.98;7.22;;;24.80;54.40;;;;;;5053474;28;20365;-52
2021/08/19 07:53:58;;;;;;;10.13;6.70;;;24.80;54.40;;;;;;5053449;28;20021;-52
2021/08/19 07:56:25;;;;;;;9.15;7.28;;;24.80;54.50;;;;;;5052871;28;20069;-53
2021/08/19 07:58:52;;;;;;;9.50;7.55;;;24.70;54.30;;;;;;5053153;28;20017;-53
2021/08/19 08:01:19;;;;;;;9.50;6.82;;;24.70;54.30;;;;;;5054195;28;20028;-53
2021/08/19 08:03:45;;;;;;;9.98;7.28;;;24.70;55.10;;;;;;5053063;28;20435;-53
2021/08/19 08:06:12;;;;;;;9.45;7.00;;;24.70;54.50;;;;;;5053145;28;20060;-53
2021/08/19 08:08:39;;;;;;;9.50;7.07;;;24.60;54.70;;;;;;5052496;28;20027;-53
2021/08/19 08:11:06;;;;;;;9.98;7.18;;;24.60;54.90;;;;;;5053361;28;20045;-53
2021/08/19 08:13:33;;;;;;;8.65;6.85;;;24.60;55.10;;;;;;5052947;28;20025;-53
2021/08/19 08:15:59;;;;;;;8.52;6.80;;;24.50;54.90;;;;;;5055962;28;20057;-53
2021/08/19 08:18:26;;;;;;;9.18;6.72;;;24.50;55.10;;;;;;5056822;28;20029;-52
2021/08/19 08:20:53;;;;;;;8.13;6.63;;;24.50;55.10;;;;;;5057278;28;20044;-53
2021/08/19 08:23:20;;;;;;;8.25;6.50;;;24.50;55.20;;;;;;5057040;28;20060;-53
2021/08/19 08:25:48;;;;;;;9.55;6.57;;;24.40;55.30;;;;;;5056721;28;20452;-53
2021/08/19 08:28:19;;;;;;;8.25;6.70;;;24.50;55.30;;;;;;5056892;28;20031;-53
2021/08/19 08:30:51;;;;;;;10.70;7.13;;;24.50;55.20;;;;;;5057006;28;20028;-53
2021/08/19 08:33:17;;;;;;;;;;;24.40;55.20;;;;;;5056991;28;20419;-53
2021/08/19 08:35:44;;;;;;;9.00;6.93;;;24.30;55.30;;;;;;5056124;28;20264;-53
2021/08/19 08:38:14;;;;;;;11.60;6.80;;;24.30;55.10;;;;;;5056738;28;20030;-53
2021/08/19 08:40:44;;;;;;;9.75;7.38;;;24.30;55.10;;;;;;5056025;28;20017;-54
2021/08/19 08:43:11;;;;;;;8.35;6.35;;;24.30;55.00;;;;;;5056306;28;20028;-53
2021/08/19 08:45:39;;;;;;;9.55;6.93;;;24.20;55.00;;;;;;5056811;28;20025;-52
2021/08/19 08:48:12;;;;;;;9.13;6.72;;;24.30;55.10;;;;;;5056238;28;20388;-53
2021/08/19 08:50:43;;;;;;;9.77;6.53;;;24.20;54.90;;;;;;5056261;28;20103;-53
2021/08/19 08:53:11;;;;;;;9.32;6.90;;;24.20;55.20;;;;;;5056214;28;20025;-52
2021/08/19 08:55:38;;;;;;;10.23;7.00;;;24.20;55.20;;;;;;5056703;28;20017;-54
2021/08/19 08:58:07;;;;;;;10.93;6.32;;;24.20;55.20;;;;;;5056008;28;20373;-53
2021/08/19 09:00:33;;;;;;;8.63;6.50;;;24.20;55.30;;;;;;5056308;28;20025;-54
2021/08/19 09:03:00;;;;;;;9.85;6.78;;;24.10;55.20;;;;;;5055957;28;20354;-54
2021/08/19 09:05:29;;;;;;;9.80;6.32;;;24.10;55.50;;;;;;5056689;28;20465;-54
2021/08/19 09:07:59;;;;;;;8.90;6.38;;;24.10;55.50;;;;;;5055849;28;20021;-53
2021/08/19 09:10:35;;;;;;;8.43;6.07;;;24.10;55.60;;;;;;5055594;28;20047;-53
2021/08/19 09:13:31;;;;;;;10.20;6.35;;;24.00;55.70;;;;;;5056430;28;20021;-53
2021/08/19 09:16:18;;;;;;;7.45;5.95;;;24.00;55.60;;;;;;5047105;28;20048;-54
2021/08/19 09:18:45;;;;;;;7.55;5.93;;;24.00;55.60;;;;;;5054971;28;20094;-54
2021/08/19 09:21:23;;;;;;;9.68;6.20;;;24.00;55.60;;;;;;5055879;28;20448;-53
2021/08/19 09:24:29;;;;;;;8.20;6.18;;;24.00;55.70;;;;;;5056099;28;20029;-54
2021/08/19 09:27:12;;;;;;;8.85;6.05;;;23.90;55.70;;;;;;4993987;28;20057;-53
2021/08/19 09:29:39;;;;;;;9.60;6.20;;;23.90;55.90;;;;;;5051298;28;20098;-53
2021/08/19 09:32:15;;;;;;;9.52;5.85;;;23.90;55.90;;;;;;5055305;28;20435;-53
2021/08/19 09:34:45;;;;;;;10.18;6.70;;;23.80;55.90;;;;;;5055643;28;20044;-54
2021/08/19 09:37:13;;;;;;;8.82;6.22;;;23.90;55.90;;;;;;5054675;28;20033;-54
2021/08/19 09:39:43;;;;;;;9.07;6.57;;;23.80;55.80;;;;;;5055220;28;20021;-53
2021/08/19 09:42:10;;;;;;;7.43;5.78;;;23.80;56.40;;;;;;5055238;28;20017;-53
2021/08/19 09:44:45;;;;;;;7.93;6.97;;;23.80;55.90;;;;;;5055193;28;20113;-53
2021/08/19 09:47:32;;;;;;;8.00;6.20;;;23.80;55.90;;;;;;5054228;28;20017;-53
2021/08/19 09:50:19;;;;;;;8.85;6.40;;;23.80;55.80;;;;;;5055043;28;20053;-52
2021/08/19 09:52:51;;;;;;;10.10;5.97;;;23.70;55.70;;;;;;5055076;28;20559;-52
2021/08/19 09:55:32;;;;;;;10.70;6.32;;;23.70;55.80;;;;;;5054927;28;20509;-52
2021/08/19 09:58:01;;;;;;;11.88;6.43;;;23.70;56.10;;;;;;5055515;28;20051;-52
2021/08/19 10:00:38;;;;;;;9.68;6.53;;;23.70;56.10;;;;;;5054809;28;20028;-52
2021/08/19 10:03:05;;;;;;;10.20;6.30;;;23.70;56.10;;;;;;5055513;28;20024;-52
2021/08/19 10:05:31;;;;;;;8.85;6.15;;;23.60;56.10;;;;;;5054794;28;20454;-53
2021/08/19 10:08:02;;;;;;;8.48;6.30;;;23.60;56.00;;;;;;5054680;28;20035;-53
2021/08/19 10:10:29;;;;;;;9.15;5.93;;;23.60;56.00;;;;;;5055038;28;20026;-54
2021/08/19 10:13:01;;;;;;;10.68;6.30;;;23.60;56.10;;;;;;5054176;28;20041;-53
2021/08/19 10:15:28;;;;;;;8.10;5.97;;;23.50;56.10;;;;;;5053788;28;20040;-53
2021/08/19 10:17:58;;;;;;;9.35;6.43;;;23.50;56.10;;;;;;5055374;28;20034;-53
2021/08/19 10:20:45;;;;;;;9.98;6.55;;;23.50;56.20;;;;;;5054258;28;20032;-53
2021/08/19 10:23:14;;;;;;;8.65;6.20;;;23.50;56.10;;;;;;5054553;28;20027;-53
2021/08/19 10:25:42;;;;;;;8.18;5.97;;;23.50;56.20;;;;;;5054726;28;20096;-53
2021/08/19 10:28:21;;;;;;;8.73;6.25;;;23.50;56.20;;;;;;5054625;28;20068;-53
2021/08/19 10:30:58;;;;;;;7.65;6.03;;;23.40;56.20;;;;;;5054594;28;20017;-52
2021/08/19 10:33:36;;;;;;;9.48;6.43;;;23.40;56.10;;;;;;5054195;28;20365;-52
2021/08/19 10:36:12;;;;;;;7.72;6.13;;;23.40;56.10;;;;;;5054982;28;20070;-52
2021/08/19 10:38:44;;;;;;;9.00;5.63;;;23.40;56.20;;;;;;5053730;28;20542;-53
2021/08/19 10:41:32;;;;;;;10.15;6.20;;;23.30;56.20;;;;;;5053835;28;20017;-53
2021/08/19 10:44:09;;;;;;;11.77;6.30;;;23.30;56.20;;;;;;5054530;28;20331;-53
2021/08/19 10:46:47;;;;;;;7.88;5.70;;;23.30;56.20;;;;;;5053861;28;20075;-53
2021/08/19 10:49:33;;;;;;;9.40;5.55;;;23.30;56.20;;;;;;5054242;28;20067;-54
2021/08/19 10:52:09;;;;;;;8.07;5.90;;;23.20;56.30;;;;;;5053911;28;20465;-53
2021/08/19 10:54:42;;;;;;;9.43;6.00;;;23.20;56.20;;;;;;5053887;28;20083;-53
2021/08/19 10:57:25;;;;;;;9.95;6.25;;;23.20;56.20;;;;;;5054078;28;20025;-53
2021/08/19 11:00:10;;;;;;;7.82;5.63;;;23.20;56.30;;;;;;5053726;28;20437;-52
2021/08/19 11:02:54;;;;;;;8.35;5.78;;;23.20;56.40;;;;;;5053130;28;20515;-53
2021/08/19 11:05:21;;;;;;;7.55;5.70;;;23.10;56.40;;;;;;5054096;28;20071;-53
2021/08/19 11:07:51;;;;;;;8.60;6.03;;;23.10;56.40;;;;;;5054710;28;20028;-53
2021/08/19 11:10:38;;;;;;;8.70;5.90;;;23.10;56.60;;;;;;5053627;28;20025;-53
2021/08/19 11:13:15;;;;;;;8.40;5.65;;;23.10;56.60;;;;;;5053912;28;20047;-52
2021/08/19 11:15:48;;;;;;;10.45;6.18;;;23.10;56.60;;;;;;5053451;28;20453;-53
2021/08/19 11:18:28;;;;;;;9.73;5.80;;;23.00;56.60;;;;;;5053874;28;20032;-53
2021/08/19 11:20:55;;;;;;;8.65;5.80;;;23.00;56.70;;;;;;5053648;28;20021;-52
2021/08/19 11:23:40;;;;;;;8.07;5.55;;;23.00;56.90;;;;;;5054119;28;20020;-52
2021/08/19 11:26:16;;;;;;;7.75;5.88;;;23.00;56.80;;;;;;5053814;28;20508;-52
2021/08/19 11:28:47;;;;;;;9.70;5.95;;;23.00;56.90;;;;;;5053140;28;20119;-52
2021/08/19 11:31:22;;;;;;;9.00;5.82;;;22.90;57.00;;;;;;5054306;28;20028;-52
2021/08/19 11:33:57;;;;;;;8.15;5.72;;;22.90;57.10;;;;;;5053645;28;20021;-52
2021/08/19 11:36:24;;;;;;;9.07;5.90;;;22.90;57.00;;;;;;5053888;28;20024;-52
2021/08/19 11:39:06;;;;;;;9.73;5.50;;;22.90;57.00;;;;;;5052430;28;20457;-53
2021/08/19 11:41:34;;;;;;;7.28;5.80;;;22.90;56.90;;;;;;5053910;28;20074;-52
2021/08/19 11:44:09;;;;;;;9.55;5.78;;;22.90;57.00;;;;;;5053439;28;20029;-53
2021/08/19 11:46:36;;;;;;;7.53;5.32;;;22.90;57.00;;;;;;5053582;28;20383;-53
2021/08/19 11:49:11;;;;;;;8.32;5.70;;;22.80;57.00;;;;;;5054418;28;20376;-52
2021/08/19 11:51:40;;;;;;;8.40;5.75;;;22.80;57.00;;;;;;5057690;28;20044;-53
2021/08/19 11:54:12;;;;;;;9.15;5.63;;;22.80;57.00;;;;;;5057230;28;20063;-53
2021/08/19 11:56:42;;;;;;;;;;;22.80;56.90;;;;;;5057924;28;20017;-52
2021/08/19 11:59:11;;;;;;;8.05;5.28;;;22.80;57.10;;;;;;5055871;28;20261;-52
2021/08/19 12:01:39;;;;;;;9.50;5.15;;;22.70;57.00;;;;;;5057152;28;20120;-53
2021/08/19 12:04:08;;;;;;;7.45;4.80;;;22.80;57.10;;;;;;5057424;28;20021;-52
2021/08/19 12:06:35;;;;;;;7.80;5.40;;;22.70;57.10;;;;;;5056081;28;20025;-53
2021/08/19 12:09:10;;;;;;;7.35;5.32;;;22.70;57.20;;;;;;5057404;28;20032;-53
2021/08/19 12:11:44;;;;;;;7.45;5.40;;;22.70;57.30;;;;;;5057219;28;20028;-52
2021/08/19 12:14:12;;;;;;;9.57;5.55;;;22.70;57.10;;;;;;5057462;28;20060;-53
2021/08/19 12:16:48;;;;;;;9.10;5.70;;;22.60;57.20;;;;;;5056887;28;20131;-53
2021/08/19 12:19:23;;;;;;;8.82;5.40;;;22.60;57.10;;;;;;5057213;28;20080;-53
2021/08/19 12:21:52;;;;;;;8.60;4.80;;;22.60;57.10;;;;;;5057056;28;20025;-53
2021/08/19 12:24:31;;;;;;;8.30;5.15;;;22.60;57.20;;;;;;5057625;28;20361;-53
2021/08/19 12:27:07;;;;;;;8.35;5.13;;;22.60;57.20;;;;;;5057016;28;20025;-53
2021/08/19 12:29:52;;;;;;;7.00;4.97;;;22.60;57.20;;;;;;5056512;28;20449;-53
2021/08/19 12:32:30;;;;;;;9.50;5.22;;;22.50;57.20;;;;;;5056901;28;20025;-53
2021/08/19 12:35:00;;;;;;;7.78;4.88;;;22.50;57.20;;;;;;5056758;28;20021;-51
2021/08/19 12:37:28;;;;;;;10.70;5.05;;;22.50;57.30;;;;;;5056154;28;20037;-53
2021/08/19 12:39:55;;;;;;;7.72;5.38;;;22.50;57.40;;;;;;5056737;28;20049;-53
2021/08/19 12:42:32;;;;;;;7.97;5.20;;;22.50;57.40;;;;;;5056708;28;20349;-52
2021/08/19 12:45:14;;;;;;;7.55;5.45;;;22.50;57.40;;;;;;5056684;28;20013;-53
2021/08/19 12:47:42;;;;;;;9.53;4.97;;;22.50;57.60;;;;;;5055796;28;20368;-53
2021/08/19 12:50:10;;;;;;;9.10;5.00;;;22.40;57.40;;;;;;5056185;28;20020;-52
2021/08/19 12:52:37;;;;;;;7.93;5.30;;;22.40;57.50;;;;;;5036252;28;20496;-52